Time,TemperatureF,DewpointF,PressureIn,WindDirection,WindDirectionDegrees,WindSpeedMPH,WindSpeedGustMPH,Humidity,HourlyPrecipIn,Conditions,Clouds,dailyrainin,SoftwareType,DateUTC
2013-01-15 00:04:00,34.4,31.0,30.39,ENE,65,0.0,0.0,87,0.00,,,0.00,weatherlink.com 1.10,2013-01-15 08:04:00,
2013-01-15 00:19:00,33.8,31.0,30.40,ENE,65,0.0,0.0,88,0.00,,,0.00,weatherlink.com 1.10,2013-01-15 08:19:00,
2013-01-15 00:34:00,33.6,31.0,30.40,ENE,65,0.0,0.0,89,0.00,,,0.00,weatherlink.com 1.10,2013-01-15 08:34:00,
2013-01-15 00:49:00,32.8,30.0,30.40,ENE,65,0.0,0.0,89,0.00,,,0.00,weatherlink.com 1.10,2013-01-15 08:49:00,
2013-01-15 01:04:00,33.2,31.0,30.40,ENE,66,0.0,0.0,90,0.00,,,0.00,weatherlink.com 1.10,2013-01-15 09:04:00,
2013-01-15 01:19:00,33.9,31.0,30.40,ENE,65,0.0,0.0,90,0.00,,,0.00,weatherlink.com 1.10,2013-01-15 09:19:00,
2013-01-15 01:34:00,32.9,30.0,30.41,ENE,65,0.0,0.0,89,0.00,,,0.00,weatherlink.com 1.10,2013-01-15 09:34:00,
2013-01-15 01:49:00,32.8,30.0,30.41,ENE,65,0.0,0.0,90,0.00,,,0.00,weatherlink.com 1.10,2013-01-15 09:49:00,
2013-01-15 02:04:00,32.5,30.0,30.41,ENE,63,0.0,0.0,90,0.00,,,0.00,weatherlink.com 1.10,2013-01-15 10:04:00,
2013-01-15 02:19:00,33.0,31.0,30.42,ENE,64,0.0,0.0,91,0.00,,,0.00,weatherlink.com 1.10,2013-01-15 10:19:00,
2013-01-15 02:34:00,33.7,31.0,30.42,ENE,63,0.0,0.0,90,0.00,,,0.00,weatherlink.com 1.10,2013-01-15 10:34:00,
2013-01-15 02:49:00,32.4,29.0,30.42,ENE,63,0.0,0.0,88,0.00,,,0.00,weatherlink.com 1.10,2013-01-15 10:49:00,
2013-01-15 03:04:00,31.6,29.0,30.42,ENE,65,0.0,0.0,90,0.00,,,0.00,weatherlink.com 1.10,2013-01-15 11:04:00,
2013-01-15 03:19:00,31.0,29.0,30.42,ENE,65,0.0,0.0,91,0.00,,,0.00,weatherlink.com 1.10,2013-01-15 11:19:00,
2013-01-15 03:34:00,30.7,29.0,30.42,ENE,65,0.0,0.0,92,0.00,,,0.00,weatherlink.com 1.10,2013-01-15 11:34:00,
2013-01-15 03:49:00,31.0,29.0,30.43,ENE,61,0.0,0.0,92,0.00,,,0.00,weatherlink.com 1.10,2013-01-15 11:49:00,
2013-01-15 04:04:00,31.2,29.0,30.43,ENE,61,0.0,0.0,92,0.00,,,0.00,weatherlink.com 1.10,2013-01-15 12:04:00,
2013-01-15 04:19:00,30.8,29.0,30.42,ENE,61,0.0,0.0,92,0.00,,,0.00,weatherlink.com 1.10,2013-01-15 12:19:00,
2013-01-15 04:34:00,30.2,28.0,30.42,ENE,61,0.0,0.0,92,0.00,,,0.00,weatherlink.com 1.10,2013-01-15 12:34:00,
2013-01-15 04:49:00,30.5,29.0,30.43,ENE,61,0.0,0.0,92,0.00,,,0.00,weatherlink.com 1.10,2013-01-15 12:49:00,
2013-01-15 05:04:00,30.0,28.0,30.42,ENE,61,0.0,0.0,93,0.00,,,0.00,weatherlink.com 1.10,2013-01-15 13:04:00,
2013-01-15 05:19:00,29.9,28.0,30.42,ENE,58,0.0,0.0,93,0.00,,,0.00,weatherlink.com 1.10,2013-01-15 13:19:00,
2013-01-15 05:34:00,29.3,28.0,30.43,ENE,58,0.0,0.0,93,0.00,,,0.00,weatherlink.com 1.10,2013-01-15 13:34:00,
2013-01-15 05:50:00,29.2,28.0,30.43,ENE,58,0.0,0.0,93,0.00,,,0.00,weatherlink.com 1.10,2013-01-15 13:50:00,
2013-01-15 06:05:00,29.3,28.0,30.43,ENE,58,0.0,0.0,93,0.00,,,0.00,weatherlink.com 1.10,2013-01-15 14:05:00,
2013-01-15 06:20:00,29.5,28.0,30.44,East,101,0.0,0.0,94,0.00,,,0.00,weatherlink.com 1.10,2013-01-15 14:20:00,
2013-01-15 06:35:00,30.1,29.0,30.44,ESE,104,0.0,0.0,94,0.00,,,0.00,weatherlink.com 1.10,2013-01-15 14:35:00,
2013-01-15 06:50:00,29.7,28.0,30.45,ESE,103,0.0,0.0,94,0.00,,,0.00,weatherlink.com 1.10,2013-01-15 14:50:00,
2013-01-15 07:05:00,29.7,28.0,30.45,East,101,0.0,0.0,94,0.00,,,0.00,weatherlink.com 1.10,2013-01-15 15:05:00,
2013-01-15 07:20:00,29.2,28.0,30.46,East,101,0.0,0.0,93,0.00,,,0.00,weatherlink.com 1.10,2013-01-15 15:20:00,
2013-01-15 07:35:00,28.6,27.0,30.46,East,101,0.0,0.0,93,0.00,,,0.00,weatherlink.com 1.10,2013-01-15 15:35:00,
2013-01-15 07:50:00,28.7,27.0,30.46,ESE,103,0.0,0.0,94,0.00,,,0.00,weatherlink.com 1.10,2013-01-15 15:50:00,
2013-01-15 08:05:00,28.9,27.0,30.47,ESE,103,0.0,0.0,94,0.00,,,0.00,weatherlink.com 1.10,2013-01-15 16:05:00,
2013-01-15 08:20:00,29.9,28.0,30.47,SSW,207,0.0,0.0,94,0.00,,,0.00,weatherlink.com 1.10,2013-01-15 16:20:00,
2013-01-15 08:35:00,30.9,29.0,30.48,SSW,208,0.0,0.0,94,0.00,,,0.00,weatherlink.com 1.10,2013-01-15 16:35:00,
2013-01-15 08:50:00,31.8,30.0,30.48,WSW,257,0.0,0.0,93,0.00,,,0.00,weatherlink.com 1.10,2013-01-15 16:50:00,
2013-01-15 09:05:00,33.7,32.0,30.48,WSW,249,0.0,0.0,94,0.00,,,0.00,weatherlink.com 1.10,2013-01-15 17:05:00,
2013-01-15 09:20:00,35.8,34.0,30.48,WSW,249,0.0,0.0,91,0.00,,,0.00,weatherlink.com 1.10,2013-01-15 17:20:00,
2013-01-15 09:35:00,37.2,33.0,30.48,South,187,0.0,0.0,86,0.00,,,0.00,weatherlink.com 1.10,2013-01-15 17:35:00,
2013-01-15 09:50:00,38.3,33.0,30.49,WNW,290,0.0,0.0,82,0.00,,,0.00,weatherlink.com 1.10,2013-01-15 17:50:00,
2013-01-15 10:05:00,39.9,34.0,30.49,WSW,238,0.0,0.0,79,0.00,,,0.00,weatherlink.com 1.10,2013-01-15 18:05:00,
2013-01-15 10:20:00,41.9,35.0,30.48,SE,143,0.0,0.0,76,0.00,,,0.00,weatherlink.com 1.10,2013-01-15 18:20:00,
2013-01-15 10:35:00,42.8,35.0,30.48,SW,218,2.0,2.0,75,0.00,,,0.00,weatherlink.com 1.10,2013-01-15 18:35:00,
2013-01-15 10:50:00,43.3,36.0,30.48,WSW,248,1.0,4.0,74,0.00,,,0.00,weatherlink.com 1.10,2013-01-15 18:50:00,
2013-01-15 11:05:00,44.2,36.0,30.48,WSW,254,0.0,3.0,73,0.00,,,0.00,weatherlink.com 1.10,2013-01-15 19:05:00,
2013-01-15 11:20:00,44.8,36.0,30.47,WNW,294,0.0,2.0,70,0.00,,,0.00,weatherlink.com 1.10,2013-01-15 19:20:00,
2013-01-15 11:35:00,45.9,36.0,30.46,West,278,1.0,3.0,69,0.00,,,0.00,weatherlink.com 1.10,2013-01-15 19:35:00,
2013-01-15 11:50:00,46.7,35.0,30.46,SW,231,0.0,4.0,65,0.00,,,0.00,weatherlink.com 1.10,2013-01-15 19:50:00,
2013-01-15 12:06:00,47.5,36.0,30.45,SW,223,3.0,4.0,65,0.00,,,0.00,weatherlink.com 1.10,2013-01-15 20:06:00,
2013-01-15 12:21:00,47.6,37.0,30.45,WNW,289,1.0,3.0,66,0.00,,,0.00,weatherlink.com 1.10,2013-01-15 20:21:00,
2013-01-15 12:36:00,48.3,37.0,30.45,SW,219,1.0,5.0,64,0.00,,,0.00,weatherlink.com 1.10,2013-01-15 20:36:00,
2013-01-15 12:51:00,49.5,37.0,30.44,West,267,0.0,4.0,63,0.00,,,0.00,weatherlink.com 1.10,2013-01-15 20:51:00,
2013-01-15 13:06:00,50.8,38.0,30.43,South,186,0.0,2.0,61,0.00,,,0.00,weatherlink.com 1.10,2013-01-15 21:06:00,
2013-01-15 13:21:00,52.2,37.0,30.43,SW,218,0.0,3.0,56,0.00,,,0.00,weatherlink.com 1.10,2013-01-15 21:21:00,
2013-01-15 13:36:00,52.4,37.0,30.42,WSW,257,1.0,4.0,57,0.00,,,0.00,weatherlink.com 1.10,2013-01-15 21:36:00,
2013-01-15 13:51:00,53.1,38.0,30.42,WSW,249,3.0,5.0,57,0.00,,,0.00,weatherlink.com 1.10,2013-01-15 21:51:00,
2013-01-15 14:06:00,53.3,37.0,30.42,SSW,208,3.0,5.0,55,0.00,,,0.00,weatherlink.com 1.10,2013-01-15 22:06:00,
2013-01-15 14:21:00,53.3,38.0,30.41,SSW,211,3.0,8.0,57,0.00,,,0.00,weatherlink.com 1.10,2013-01-15 22:21:00,
2013-01-15 14:36:00,54.6,38.0,30.41,South,181,3.0,4.0,53,0.00,,,0.00,weatherlink.com 1.10,2013-01-15 22:36:00,
2013-01-15 14:51:00,54.9,36.0,30.41,SW,215,4.0,5.0,50,0.00,,,0.00,weatherlink.com 1.10,2013-01-15 22:51:00,
2013-01-15 15:06:00,54.7,36.0,30.41,SSW,201,5.0,8.0,49,0.00,,,0.00,weatherlink.com 1.10,2013-01-15 23:06:00,
2013-01-15 15:21:00,54.4,35.0,30.41,SW,217,4.0,8.0,49,0.00,,,0.00,weatherlink.com 1.10,2013-01-15 23:21:00,
2013-01-15 15:36:00,54.1,36.0,30.41,South,174,5.0,9.0,50,0.00,,,0.00,weatherlink.com 1.10,2013-01-15 23:36:00,
2013-01-15 15:51:00,53.8,36.0,30.41,South,179,7.0,8.0,51,0.00,,,0.00,weatherlink.com 1.10,2013-01-15 23:51:00,
2013-01-15 16:06:00,53.2,36.0,30.42,South,184,3.0,9.0,52,0.00,,,0.00,weatherlink.com 1.10,2013-01-16 00:06:00,
2013-01-15 16:21:00,52.4,36.0,30.42,South,191,5.0,9.0,53,0.00,,,0.00,weatherlink.com 1.10,2013-01-16 00:21:00,
2013-01-15 16:36:00,52.0,36.0,30.42,SSW,205,6.0,9.0,54,0.00,,,0.00,weatherlink.com 1.10,2013-01-16 00:36:00,
2013-01-15 16:51:00,51.1,36.0,30.42,SW,218,3.0,6.0,56,0.00,,,0.00,weatherlink.com 1.10,2013-01-16 00:51:00,
2013-01-15 17:06:00,49.9,35.0,30.42,SW,231,5.0,6.0,58,0.00,,,0.00,weatherlink.com 1.10,2013-01-16 01:06:00,
2013-01-15 17:21:00,48.0,34.0,30.42,SW,224,4.0,5.0,59,0.00,,,0.00,weatherlink.com 1.10,2013-01-16 01:21:00,
2013-01-15 17:36:00,46.7,34.0,30.42,South,191,0.0,3.0,62,0.00,,,0.00,weatherlink.com 1.10,2013-01-16 01:36:00,
2013-01-15 17:51:00,45.1,35.0,30.43,SW,215,0.0,0.0,67,0.00,,,0.00,weatherlink.com 1.10,2013-01-16 01:51:00,
2013-01-15 18:06:00,43.7,35.0,30.43,ESE,115,0.0,0.0,72,0.00,,,0.00,weatherlink.com 1.10,2013-01-16 02:06:00,
2013-01-15 18:21:00,42.4,35.0,30.43,East,85,0.0,1.0,75,0.00,,,0.00,weatherlink.com 1.10,2013-01-16 02:21:00,
2013-01-15 18:36:00,41.9,35.0,30.43,ENE,67,0.0,0.0,75,0.00,,,0.00,weatherlink.com 1.10,2013-01-16 02:36:00,
2013-01-15 18:51:00,41.5,34.0,30.43,ENE,67,0.0,0.0,75,0.00,,,0.00,weatherlink.com 1.10,2013-01-16 02:51:00,
2013-01-15 19:06:00,40.7,34.0,30.43,ENE,67,0.0,0.0,77,0.00,,,0.00,weatherlink.com 1.10,2013-01-16 03:06:00,
2013-01-15 19:21:00,39.7,33.0,30.43,ENE,67,0.0,0.0,78,0.00,,,0.00,weatherlink.com 1.10,2013-01-16 03:21:00,
2013-01-15 19:36:00,39.5,34.0,30.43,ENE,67,0.0,0.0,80,0.00,,,0.00,weatherlink.com 1.10,2013-01-16 03:36:00,
2013-01-15 19:51:00,39.2,34.0,30.43,ENE,67,0.0,0.0,80,0.00,,,0.00,weatherlink.com 1.10,2013-01-16 03:51:00,
2013-01-15 20:06:00,39.1,34.0,30.43,ENE,77,0.0,0.0,81,0.00,,,0.00,weatherlink.com 1.10,2013-01-16 04:06:00,
2013-01-15 20:21:00,38.1,33.0,30.43,ENE,77,0.0,0.0,81,0.00,,,0.00,weatherlink.com 1.10,2013-01-16 04:21:00,
2013-01-15 20:36:00,37.4,33.0,30.42,ENE,75,0.0,0.0,83,0.00,,,0.00,weatherlink.com 1.10,2013-01-16 04:36:00,
2013-01-15 20:51:00,37.4,33.0,30.42,NE,49,0.0,0.0,83,0.00,,,0.00,weatherlink.com 1.10,2013-01-16 04:51:00,
2013-01-15 21:06:00,37.5,33.0,30.42,ENE,71,0.0,0.0,82,0.00,,,0.00,weatherlink.com 1.10,2013-01-16 05:06:00,
2013-01-15 21:21:00,37.3,33.0,30.42,ENE,63,0.0,0.0,83,0.00,,,0.00,weatherlink.com 1.10,2013-01-16 05:21:00,
2013-01-15 21:36:00,36.9,32.0,30.42,SW,228,0.0,0.0,81,0.00,,,0.00,weatherlink.com 1.10,2013-01-16 05:36:00,
2013-01-15 21:51:00,35.7,31.0,30.42,SW,228,0.0,0.0,84,0.00,,,0.00,weatherlink.com 1.10,2013-01-16 05:51:00,
2013-01-15 22:06:00,35.5,31.0,30.42,SW,228,0.0,0.0,85,0.00,,,0.00,weatherlink.com 1.10,2013-01-16 06:06:00,
2013-01-15 22:21:00,35.5,32.0,30.42,SW,226,0.0,0.0,87,0.00,,,0.00,weatherlink.com 1.10,2013-01-16 06:21:00,
2013-01-15 22:36:00,34.9,31.0,30.43,NE,43,0.0,0.0,85,0.00,,,0.00,weatherlink.com 1.10,2013-01-16 06:36:00,
2013-01-15 22:51:00,34.4,31.0,30.43,NE,42,0.0,0.0,87,0.00,,,0.00,weatherlink.com 1.10,2013-01-16 06:51:00,
2013-01-15 23:06:00,34.6,31.0,30.43,NE,42,0.0,0.0,87,0.00,,,0.00,weatherlink.com 1.10,2013-01-16 07:06:00,
2013-01-15 23:21:00,34.4,31.0,30.43,NE,50,0.0,0.0,87,0.00,,,0.00,weatherlink.com 1.10,2013-01-16 07:21:00,
2013-01-15 23:36:00,33.3,30.0,30.43,NE,50,0.0,0.0,88,0.00,,,0.00,weatherlink.com 1.10,2013-01-16 07:36:00,
2013-01-15 23:51:00,33.5,31.0,30.43,SSE,156,0.0,0.0,89,0.00,,,0.00,weatherlink.com 1.10,2013-01-16 07:51:00,